Time;durP1;ratioP1;P1;durP2;ratioP2;P2;SDS_P1;SDS_P2;PMS_P1;PMS_P2;Temp;Humidity;BMP_temperature;BMP_pressure;BME280_temperature;BME280_humidity;BME280_pressure;Samples;Min_cycle;Max_cycle;Signal;HPM_P1;HPM_P2
2021/12/18 00:00:50;;;;;;;;;43.50;34.75;;;;;9.29;65.54;103122.97;5027971;28;45560;-64
2021/12/18 00:03:16;;;;;;;;;44.50;32.25;;;;;9.30;65.02;103121.22;5029485;28;45141;-64
2021/12/18 00:05:41;;;;;;;;;45.25;36.00;;;;;9.18;65.35;103097.28;5029424;28;45277;-65
2021/12/18 00:08:07;;;;;;;;;22.50;14.75;;;;;9.11;65.38;103084.34;5029463;28;45167;-64
2021/12/18 00:10:33;;;;;;;;;38.00;31.25;;;;;9.26;64.73;103116.50;5029766;28;45771;-64
2021/12/18 00:13:00;;;;;;;;;40.75;32.00;;;;;9.03;64.39;103078.47;5029186;28;45057;-65
2021/12/18 00:15:26;;;;;;;;;39.00;34.75;;;;;9.18;65.19;103106.19;5043409;28;45522;-64
2021/12/18 00:17:52;;;;;;;;;35.00;26.00;;;;;9.16;65.03;103107.84;5032528;28;45185;-64
2021/12/18 00:20:18;;;;;;;;;38.75;33.75;;;;;9.14;64.93;103103.19;5032583;28;45238;-64
2021/12/18 00:22:44;;;;;;;;;31.75;28.50;;;;;9.08;64.51;103103.72;5031598;28;44712;-65
2021/12/18 00:25:11;;;;;;;;;27.50;27.50;;;;;9.11;64.50;103100.34;5029290;28;45086;-65
2021/12/18 00:27:36;;;;;;;;;50.50;41.75;;;;;9.13;64.46;103104.94;5030404;28;45630;-64
2021/12/18 00:30:04;;;;;;;;;32.00;26.50;;;;;9.11;64.51;103089.69;5030251;28;45742;-65
2021/12/18 00:32:29;;;;;;;;;34.00;28.50;;;;;8.95;64.50;103069.91;5019429;28;45255;-65
2021/12/18 00:34:55;;;;;;;;;28.25;26.75;;;;;9.08;64.12;103090.38;5013222;28;45035;-65
2021/12/18 00:37:20;;;;;;;;;57.25;39.25;;;;;9.08;64.66;103095.72;5011777;28;44976;-65
2021/12/18 00:40:22;;;;;;;;;37.00;30.50;;;;;9.08;65.06;103101.03;5011417;28;45159;-66
2021/12/18 00:42:48;;;;;;;;;31.75;26.00;;;;;9.11;63.86;103098.59;5009284;28;45426;-65
2021/12/18 00:45:16;;;;;;;;;61.25;47.75;;;;;9.13;64.45;103098.72;5010117;28;45437;-65
2021/12/18 00:47:43;;;;;;;;;34.25;32.75;;;;;9.11;64.29;103109.25;5016832;28;45116;-65
2021/12/18 00:50:13;;;;;;;;;50.50;38.75;;;;;9.09;64.87;103096.63;5031993;28;45832;-66
2021/12/18 00:52:39;;;;;;;;;38.50;35.00;;;;;9.09;63.58;103097.56;5030952;28;45254;-63
2021/12/18 00:55:05;;;;;;;;;42.00;31.75;;;;;9.10;63.92;103085.16;5031070;28;45319;-65
2021/12/18 00:57:30;;;;;;;;;34.75;29.50;;;;;9.07;64.19;103085.84;5029981;28;45020;-66
2021/12/18 01:00:00;;;;;;;;;35.75;24.75;;;;;9.00;63.78;103080.91;5029443;28;45464;-64
2021/12/18 01:02:28;;;;;;;;;25.50;22.50;;;;;9.04;64.43;103078.56;5029886;28;45379;-65
2021/12/18 01:04:53;;;;;;;;;43.25;34.25;;;;;9.02;63.41;103090.88;5014620;28;45173;-65
2021/12/18 01:07:18;;;;;;;;;50.50;39.75;;;;;9.01;64.12;103089.03;5010249;28;44888;-64
2021/12/18 01:10:01;;;;;;;;;30.50;27.00;;;;;8.97;63.66;103080.69;5010102;28;44959;-65
2021/12/18 01:12:33;;;;;;;;;38.25;26.00;;;;;9.02;63.80;103095.28;5008761;28;45180;-64
2021/12/18 01:15:13;;;;;;;;;39.25;26.00;;;;;9.00;63.80;103092.50;5009497;28;44977;-65
2021/12/18 01:23:07;;;;;;;;;29.00;24.25;;;;;8.83;63.92;103090.41;5030445;28;45375;-62
2021/12/18 01:25:33;;;;;;;;;29.00;23.75;;;;;8.86;64.10;103093.28;5030162;28;45649;-63
2021/12/18 01:27:58;;;;;;;;;30.75;26.00;;;;;8.86;64.44;103106.63;5028980;28;45273;-64
2021/12/18 01:30:23;;;;;;;;;27.25;21.25;;;;;8.82;63.67;103084.13;5029482;28;45512;-65
2021/12/18 01:32:49;;;;;;;;;27.00;20.75;;;;;8.81;63.34;103081.34;5045151;28;45423;-64
2021/12/18 01:35:15;;;;;;;;;29.50;24.00;;;;;8.88;63.60;103094.31;5029676;28;45359;-64
2021/12/18 01:37:41;;;;;;;;;28.75;22.00;;;;;8.78;63.69;103087.41;5016013;28;45058;-64
2021/12/18 01:40:07;;;;;;;;;27.25;24.00;;;;;8.85;63.32;103104.75;5010789;28;45068;-64
2021/12/18 01:52:52;;;;;;;;;21.50;20.00;;;;;8.70;64.03;103104.56;5012706;28;45399;-63
2021/12/18 01:55:18;;;;;;;;;27.00;19.50;;;;;8.60;63.12;103084.34;5032404;28;44919;-66
2021/12/18 01:57:44;;;;;;;;;30.75;20.50;;;;;8.73;63.11;103101.19;5029845;28;45255;-64
2021/12/18 02:00:20;;;;;;;;;27.75;21.25;;;;;8.71;63.52;103108.16;5030274;28;46069;-65
2021/12/18 02:02:45;;;;;;;;;28.50;18.75;;;;;8.72;63.29;103104.69;5028721;28;45482;-63
2021/12/18 02:05:11;;;;;;;;;29.00;20.50;;;;;8.70;64.02;103109.00;5028808;28;45361;-64
2021/12/18 02:07:36;;;;;;;;;20.75;17.75;;;;;8.61;63.01;103094.19;5029959;28;45493;-63
2021/12/18 02:10:07;;;;;;;;;27.00;20.00;;;;;8.54;63.67;103077.63;5029623;28;45658;-64
2021/12/18 02:20:49;;;;;;;;;22.25;17.25;;;;;8.63;63.29;103105.88;5008241;28;45337;-64
2021/12/18 02:23:14;;;;;;;;;24.75;22.25;;;;;8.66;62.89;103107.81;5008710;28;45024;-65
2021/12/18 02:25:41;;;;;;;;;23.00;19.25;;;;;8.66;63.66;103107.81;5009517;28;44891;-65
2021/12/18 02:28:14;;;;;;;;;22.50;16.75;;;;;8.65;62.94;103109.56;5008743;28;45010;-65
2021/12/18 02:30:39;;;;;;;;;30.00;26.00;;;;;8.54;62.80;103101.63;5031377;28;45020;-64
2021/12/18 02:33:05;;;;;;;;;26.00;25.00;;;;;8.48;62.94;103086.13;5031896;28;44879;-64
2021/12/18 02:35:35;;;;;;;;;30.75;24.50;;;;;8.59;63.10;103110.88;5029777;28;45128;-66
2021/12/18 02:38:19;;;;;;;;;30.00;28.50;;;;;8.62;63.83;103108.44;5029394;28;45209;-64
2021/12/18 02:43:26;;;;;;;;;23.00;20.75;;;;;8.47;62.89;103089.59;5030070;28;46246;-65
2021/12/18 02:45:59;;;;;;;;;23.50;20.25;;;;;8.56;63.47;103094.66;5030456;28;45334;-64
2021/12/18 02:48:26;;;;;;;;;35.50;26.25;;;;;8.59;63.92;103089.56;5030976;28;45402;-64
2021/12/18 02:50:51;;;;;;;;;23.50;23.00;;;;;8.41;63.38;103068.69;5031137;28;45571;-66
2021/12/18 02:53:17;;;;;;;;;24.25;23.25;;;;;8.56;62.83;103097.31;5030268;28;45239;-65
2021/12/18 02:55:42;;;;;;;;;25.75;18.75;;;;;8.49;63.03;103099.53;5030424;28;45245;-66
2021/12/18 02:58:08;;;;;;;;;21.00;18.25;;;;;8.51;63.36;103096.97;5029571;28;45187;-65
2021/12/18 03:00:33;;;;;;;;;26.50;22.75;;;;;8.53;63.05;103106.03;5028919;28;45501;-65
2021/12/18 03:03:04;;;;;;;;;25.00;20.50;;;;;8.54;63.27;103106.94;5030479;28;45144;-65
2021/12/18 03:05:36;;;;;;;;;29.75;24.25;;;;;8.41;63.61;103092.69;5031626;28;45136;-64
2021/12/18 03:08:10;;;;;;;;;32.75;23.00;;;;;7.98;63.60;103014.97;5027715;28;45385;-64
2021/12/18 03:19:13;;;;;;;;;31.00;21.75;;;;;8.46;63.16;103101.03;5028373;28;45063;-64
2021/12/18 03:22:35;;;;;;;;;23.25;18.00;;;;;8.43;63.45;103098.16;5030836;28;46644;-63
2021/12/18 03:24:53;;;;;;;;;29.25;24.75;;;;;8.34;63.53;103098.38;5030939;28;45128;-64
2021/12/18 03:27:19;;;;;;;;;27.75;22.00;;;;;8.42;63.90;103097.22;5030351;28;44983;-65
2021/12/18 03:29:44;;;;;;;;;29.50;22.50;;;;;8.47;63.42;103105.56;5030924;28;45115;-63
2021/12/18 03:32:10;;;;;;;;;30.25;22.75;;;;;8.40;63.52;103088.19;5029355;28;45205;-65
2021/12/18 03:34:35;;;;;;;;;21.75;20.00;;;;;8.53;63.43;103098.03;5029307;28;45791;-63
2021/12/18 03:37:02;;;;;;;;;29.50;22.75;;;;;8.56;64.01;103099.97;5031439;28;44918;-63
2021/12/18 03:39:27;;;;;;;;;26.00;23.00;;;;;8.57;63.50;103092.09;5031696;28;45022;-65
2021/12/18 03:41:53;;;;;;;;;35.00;25.25;;;;;8.61;63.31;103093.25;5031047;28;45060;-64
2021/12/18 03:44:19;;;;;;;;;26.25;20.50;;;;;8.54;64.32;103070.56;5031321;28;45104;-64
2021/12/18 03:46:44;;;;;;;;;30.00;23.00;;;;;8.53;64.35;103063.41;5031155;28;45150;-62
2021/12/18 03:49:10;;;;;;;;;26.50;21.50;;;;;8.70;63.79;103087.66;5030545;28;44982;-64
2021/12/18 03:51:35;;;;;;;;;23.00;17.00;;;;;8.69;64.35;103081.38;5029759;28;45207;-65
2021/12/18 03:54:02;;;;;;;;;32.75;24.00;;;;;8.71;63.62;103084.16;5034121;28;45077;-63
2021/12/18 03:56:27;;;;;;;;;25.00;20.25;;;;;8.51;64.23;103041.03;5033275;28;45188;-64
2021/12/18 03:58:53;;;;;;;;;34.25;22.50;;;;;8.67;64.65;103081.28;5034699;28;45160;-63
2021/12/18 04:01:18;;;;;;;;;24.00;19.50;;;;;8.73;63.98;103070.16;5049797;28;52131;-64
2021/12/18 04:03:43;;;;;;;;;25.25;23.25;;;;;8.76;63.86;103073.03;5034698;28;45104;-64
2021/12/18 04:06:09;;;;;;;;;25.25;20.00;;;;;8.77;63.86;103066.88;5034193;28;45135;-64
2021/12/18 04:08:34;;;;;;;;;25.50;21.00;;;;;8.87;64.25;103075.53;5049355;28;45050;-64
2021/12/18 04:10:59;;;;;;;;;30.50;20.00;;;;;8.90;63.93;103082.00;5034521;28;45104;-62
2021/12/18 04:13:25;;;;;;;;;29.00;23.75;;;;;8.77;63.64;103049.97;5034270;28;44932;-64
2021/12/18 04:15:50;;;;;;;;;27.25;22.00;;;;;8.72;63.71;103046.06;5033583;28;45366;-62
2021/12/18 04:18:15;;;;;;;;;31.25;25.00;;;;;8.87;64.35;103075.53;5032474;28;45760;-63
2021/12/18 04:20:41;;;;;;;;;25.75;23.00;;;;;8.85;64.44;103078.09;5029932;28;46709;-64
2021/12/18 04:23:06;;;;;;;;;27.50;24.25;;;;;8.85;64.29;103078.09;5032303;28;44958;-63
2021/12/18 04:25:32;;;;;;;;;25.50;20.75;;;;;8.84;64.20;103073.56;5031673;28;44942;-63
2021/12/18 04:27:57;;;;;;;;;26.00;20.00;;;;;8.65;64.53;103034.94;5033301;28;44942;-64
2021/12/18 04:30:23;;;;;;;;;35.75;27.00;;;;;8.88;64.08;103078.31;5032924;28;45974;-65
2021/12/18 04:32:48;;;;;;;;;26.00;22.75;;;;;8.90;64.96;103073.09;5033818;28;45076;-65
2021/12/18 04:35:13;;;;;;;;;37.75;25.00;;;;;8.88;64.37;103078.31;5048927;28;45180;-64
2021/12/18 04:37:39;;;;;;;;;32.00;22.50;;;;;8.93;64.41;103078.66;5033580;28;45005;-64
2021/12/18 04:40:05;;;;;;;;;29.75;25.25;;;;;8.96;65.04;103090.44;5032867;28;45484;-65
2021/12/18 04:42:30;;;;;;;;;30.75;27.25;;;;;9.00;63.99;103083.56;5032511;28;45076;-64
2021/12/18 04:44:56;;;;;;;;;28.00;25.50;;;;;9.01;64.94;103085.44;5031989;28;45008;-63
2021/12/18 04:47:21;;;;;;;;;28.00;25.75;;;;;8.99;64.97;103069.34;5032504;28;44874;-63
2021/12/18 04:49:46;;;;;;;;;30.50;22.50;;;;;9.00;64.27;103079.16;5032177;28;46374;-62
2021/12/18 04:52:12;;;;;;;;;32.00;25.50;;;;;9.03;64.03;103081.13;5031459;28;44917;-63
2021/12/18 04:54:37;;;;;;;;;26.75;19.50;;;;;8.85;64.59;103054.09;5031843;28;44931;-63
2021/12/18 04:57:03;;;;;;;;;23.50;20.25;;;;;9.04;64.12;103088.28;5032865;28;45070;-62
2021/12/18 04:59:28;;;;;;;;;26.00;22.25;;;;;8.98;64.42;103085.22;5031717;28;46187;-65
2021/12/18 05:01:54;;;;;;;;;29.75;23.00;;;;;8.98;64.42;103080.81;5031910;28;44993;-62
2021/12/18 05:04:20;;;;;;;;;38.00;25.25;;;;;8.99;64.57;103088.00;5031560;28;45226;-62
2021/12/18 05:06:47;;;;;;;;;35.25;29.00;;;;;9.04;63.97;103091.91;5033755;28;45140;-64
2021/12/18 05:09:14;;;;;;;;;33.25;24.00;;;;;9.05;64.21;103095.50;5032974;28;45548;-64
2021/12/18 05:11:41;;;;;;;;;39.50;33.50;;;;;9.04;64.89;103090.97;5032769;28;45058;-62
2021/12/18 05:14:07;;;;;;;;;30.50;25.50;;;;;9.01;64.55;103081.03;5031883;28;45143;-64
2021/12/18 05:16:32;;;;;;;;;31.25;23.25;;;;;9.12;63.76;103100.41;5033249;28;44973;-63
2021/12/18 05:18:57;;;;;;;;;29.25;22.50;;;;;9.12;63.66;103100.41;5031348;28;45356;-64
2021/12/18 05:21:23;;;;;;;;;36.25;25.00;;;;;9.16;64.15;103098.91;5032654;28;44954;-64
2021/12/18 05:23:49;;;;;;;;;28.50;24.00;;;;;9.11;63.28;103095.94;5031046;28;44978;-63
2021/12/18 05:26:14;;;;;;;;;32.25;25.50;;;;;9.14;63.68;103093.47;5030763;28;44997;-62
2021/12/18 05:28:40;;;;;;;;;27.00;22.00;;;;;9.17;63.21;103103.41;5030749;28;45506;-62
2021/12/18 05:31:05;;;;;;;;;31.25;25.25;;;;;9.19;63.99;103094.72;5031940;28;44911;-63
2021/12/18 05:33:30;;;;;;;;;28.75;24.75;;;;;9.15;63.52;103083.72;5033278;28;44919;-65
2021/12/18 05:35:56;;;;;;;;;32.00;23.00;;;;;9.20;63.05;103090.31;5033234;28;45390;-65
2021/12/18 05:38:21;;;;;;;;;28.75;25.25;;;;;9.18;62.94;103099.94;5032919;28;45053;-64
2021/12/18 05:40:47;;;;;;;;;20.75;19.75;;;;;9.15;63.57;103100.66;5032881;28;45025;-63
2021/12/18 05:43:12;;;;;;;;;27.00;20.50;;;;;9.23;63.38;103094.09;5032875;28;44987;-65
2021/12/18 05:45:38;;;;;;;;;29.75;24.75;;;;;9.20;62.68;103090.31;5030384;28;45104;-63
2021/12/18 05:48:04;;;;;;;;;24.75;18.00;;;;;9.13;63.21;103069.38;5031688;28;45087;-65
2021/12/18 05:50:30;;;;;;;;;26.00;20.75;;;;;9.14;63.01;103072.16;5032275;28;45095;-63
2021/12/18 05:52:58;;;;;;;;;35.00;27.50;;;;;9.22;63.58;103092.28;5032721;28;45075;-64
2021/12/18 05:55:25;;;;;;;;;24.75;24.50;;;;;9.00;62.96;103052.50;5032119;28;44922;-63
2021/12/18 05:57:52;;;;;;;;;25.00;20.50;;;;;9.19;63.71;103089.38;5032202;28;45260;-63
2021/12/18 06:00:18;;;;;;;;;31.75;21.75;;;;;9.17;63.30;103093.69;5031939;28;45164;-63
2021/12/18 06:02:43;;;;;;;;;27.50;25.75;;;;;9.16;63.33;103085.59;5032222;28;45177;-64
2021/12/18 06:05:10;;;;;;;;;28.25;25.00;;;;;9.16;63.48;103083.84;5032286;28;45065;-63
2021/12/18 06:07:53;;;;;;;;;21.00;20.75;;;;;9.18;62.68;103089.28;5032776;28;45986;-63
2021/12/18 06:10:20;;;;;;;;;23.75;21.75;;;;;9.10;63.61;103088.72;5031877;28;45074;-64
2021/12/18 06:12:46;;;;;;;;;24.50;23.00;;;;;9.09;63.57;103084.25;5029210;28;44966;-64
2021/12/18 06:15:11;;;;;;;;;25.75;21.25;;;;;9.08;63.47;103086.78;5029133;28;45063;-63
2021/12/18 06:17:36;;;;;;;;;44.50;34.25;;;;;9.10;63.63;103080.72;5029374;28;45485;-63
2021/12/18 06:20:02;;;;;;;;;31.75;30.75;;;;;9.11;62.47;103079.00;5045225;28;45064;-64
2021/12/18 06:22:28;;;;;;;;;27.50;23.25;;;;;9.11;62.97;103077.25;5032563;28;44924;-65
2021/12/18 06:24:53;;;;;;;;;32.75;26.50;;;;;9.06;62.87;103076.03;5032393;28;44973;-65
2021/12/18 06:27:18;;;;;;;;;31.75;27.75;;;;;8.88;63.40;103050.75;5031396;28;46235;-65
2021/12/18 06:29:46;;;;;;;;;31.75;26.00;;;;;9.02;62.85;103085.56;5029465;28;45518;-65
2021/12/18 06:32:11;;;;;;;;;28.50;25.50;;;;;9.01;63.32;103086.34;5028662;28;45066;-62
2021/12/18 06:34:36;;;;;;;;;29.75;26.50;;;;;9.02;63.88;103085.56;5029140;28;45251;-63
2021/12/18 06:37:02;;;;;;;;;25.25;23.50;;;;;9.04;64.29;103086.56;5029046;28;45473;-65
2021/12/18 06:39:27;;;;;;;;;32.25;25.75;;;;;9.05;63.35;103092.81;5029797;28;44997;-65
2021/12/18 06:41:53;;;;;;;;;25.25;21.50;;;;;9.07;63.90;103091.19;5030979;28;44940;-63
2021/12/18 06:44:19;;;;;;;;;28.00;25.00;;;;;9.02;63.79;103096.22;5028422;28;45337;-63
2021/12/18 06:46:44;;;;;;;;;30.50;23.75;;;;;9.02;64.11;103087.28;5029514;28;45342;-64
2021/12/18 06:49:10;;;;;;;;;31.25;26.75;;;;;9.01;63.32;103086.34;5031231;28;45279;-64
2021/12/18 06:51:35;;;;;;;;;31.25;24.50;;;;;8.98;64.07;103094.13;5029942;28;45237;-63
2021/12/18 06:54:01;;;;;;;;;28.50;25.50;;;;;9.00;64.08;103103.16;5031826;28;45026;-65
2021/12/18 06:56:26;;;;;;;;;27.50;21.50;;;;;9.01;63.25;103097.03;5029909;28;45146;-63
2021/12/18 06:58:52;;;;;;;;;20.50;20.50;;;;;9.00;63.17;103096.91;5029919;28;45177;-62
2021/12/18 07:01:17;;;;;;;;;24.25;24.25;;;;;8.88;63.62;103078.31;5029691;28;44976;-64
2021/12/18 07:03:42;;;;;;;;;27.25;21.25;;;;;9.04;63.10;103091.91;5029710;28;45254;-64
2021/12/18 07:06:08;;;;;;;;;30.75;24.00;;;;;8.94;63.97;103084.09;5029978;28;45264;-62
2021/12/18 07:08:33;;;;;;;;;34.50;24.50;;;;;9.00;63.97;103087.16;5023642;28;45309;-64
2021/12/18 07:10:58;;;;;;;;;22.25;20.75;;;;;8.89;63.62;103073.91;5026070;28;44906;-62
2021/12/18 07:13:24;;;;;;;;;38.75;30.50;;;;;8.84;63.54;103082.50;5016205;28;45333;-63
2021/12/18 07:15:50;;;;;;;;;33.00;26.00;;;;;8.97;63.44;103102.03;5031130;28;45610;-63
2021/12/18 07:18:16;;;;;;;;;29.50;23.75;;;;;8.76;63.37;103069.44;5030705;28;45089;-63
2021/12/18 07:20:41;;;;;;;;;34.75;26.00;;;;;8.84;64.07;103084.22;5029245;28;45358;-64
2021/12/18 07:23:06;;;;;;;;;31.25;21.50;;;;;8.72;63.64;103078.94;5028645;28;45372;-66
2021/12/18 07:25:32;;;;;;;;;39.50;25.00;;;;;8.90;62.78;103102.41;5028143;28;45527;-64
2021/12/18 07:27:57;;;;;;;;;25.75;22.50;;;;;8.89;63.36;103106.78;5032521;28;45203;-66
2021/12/18 07:30:23;;;;;;;;;30.50;27.00;;;;;8.86;62.82;103111.94;5034689;28;45123;-65
2021/12/18 07:32:49;;;;;;;;;34.25;26.75;;;;;8.80;64.12;103108.81;5029581;28;45378;-66
2021/12/18 07:35:14;;;;;;;;;30.75;24.25;;;;;8.77;63.59;103111.28;5033155;28;45790;-67
2021/12/18 07:37:40;;;;;;;;;26.25;25.25;;;;;8.77;63.65;103120.19;5032948;28;45386;-65
2021/12/18 07:40:07;;;;;;;;;25.00;21.50;;;;;8.65;64.13;103098.00;5033128;28;45222;-65
2021/12/18 07:42:33;;;;;;;;;33.75;28.25;;;;;8.34;63.55;103050.44;5033576;28;44874;-68
2021/12/18 07:44:59;;;;;;;;;24.75;20.25;;;;;8.61;63.36;103099.53;5034064;28;45579;-64
2021/12/18 07:47:24;;;;;;;;;24.00;18.50;;;;;8.69;63.26;103112.47;5034337;28;44943;-66
2021/12/18 07:49:50;;;;;;;;;22.75;20.25;;;;;8.75;63.30;103132.47;5034698;28;45308;-67
2021/12/18 07:52:15;;;;;;;;;26.25;25.50;;;;;8.26;63.38;103041.88;5034510;28;45094;-67
2021/12/18 07:54:41;;;;;;;;;28.50;23.00;;;;;8.69;62.63;103118.69;5033261;28;46205;-68
2021/12/18 07:57:06;;;;;;;;;36.25;27.75;;;;;8.75;63.59;103118.25;5033807;28;44978;-65
2021/12/18 07:59:32;;;;;;;;;38.50;32.25;;;;;8.48;63.13;103073.72;5033553;28;45533;-66
2021/12/18 08:01:57;;;;;;;;;23.00;20.75;;;;;8.67;63.17;103117.69;5033242;28;45094;-68
2021/12/18 08:04:23;;;;;;;;;26.25;21.25;;;;;8.65;63.83;103122.88;5033957;28;45563;-66
2021/12/18 08:06:48;;;;;;;;;27.00;20.25;;;;;8.66;63.73;103127.41;5033359;28;45024;-66
2021/12/18 08:09:13;;;;;;;;;26.00;19.75;;;;;8.65;63.02;103116.66;5033676;28;44977;-67
2021/12/18 08:11:39;;;;;;;;;27.25;22.50;;;;;8.60;63.31;103102.06;5034529;28;45306;-65
2021/12/18 08:14:04;;;;;;;;;56.25;40.25;;;;;8.69;63.31;103117.78;5034150;28;45617;-67
2021/12/18 08:16:29;;;;;;;;;43.50;33.00;;;;;8.63;62.75;103116.53;5033284;28;45150;-65
2021/12/18 08:18:55;;;;;;;;;33.75;24.00;;;;;8.67;63.73;103113.25;5033748;28;45068;-65
2021/12/18 08:21:20;;;;;;;;;25.50;22.25;;;;;8.47;63.73;103078.94;5034339;28;45206;-65
2021/12/18 08:23:45;;;;;;;;;36.50;21.75;;;;;8.63;63.69;103123.63;5033782;28;45275;-65
2021/12/18 08:26:11;;;;;;;;;38.50;29.50;;;;;8.65;63.60;103114.91;5033043;28;44968;-64
2021/12/18 08:28:36;;;;;;;;;31.25;20.50;;;;;8.63;63.33;103110.28;5029854;28;45347;-66
2021/12/18 08:31:02;;;;;;;;;40.75;33.50;;;;;8.72;63.21;103118.00;5031199;28;44931;-66
2021/12/18 08:33:27;;;;;;;;;32.75;27.00;;;;;8.61;63.57;103104.84;5031166;28;45216;-66
2021/12/18 08:35:53;;;;;;;;;27.75;23.75;;;;;8.68;63.39;103124.88;5032879;28;44987;-66
2021/12/18 08:38:18;;;;;;;;;30.00;23.75;;;;;8.66;62.71;103132.75;5029842;28;45170;-67
2021/12/18 08:40:45;;;;;;;;;38.00;26.50;;;;;8.64;63.55;103126.34;5033377;28;45038;-65
2021/12/18 08:43:11;;;;;;;;;31.75;24.75;;;;;8.70;63.17;103130.31;5033534;28;45072;-64
2021/12/18 08:45:37;;;;;;;;;38.25;31.50;;;;;8.71;62.67;103141.09;5032682;28;45016;-66
2021/12/18 08:48:03;;;;;;;;;30.25;25.75;;;;;8.59;63.12;103105.53;5024600;28;45296;-66
2021/12/18 08:50:28;;;;;;;;;38.75;32.25;;;;;8.79;63.02;103136.28;5030261;28;45252;-67
2021/12/18 08:52:54;;;;;;;;;26.75;24.50;;;;;8.80;63.51;103131.06;5022994;28;47566;-66
2021/12/18 08:55:22;;;;;;;;;25.00;20.50;;;;;8.66;63.31;103100.78;5029948;28;45455;-68
2021/12/18 08:57:48;;;;;;;;;33.50;24.25;;;;;8.79;63.36;103120.28;5025731;28;45351;-67
2021/12/18 09:00:17;;;;;;;;;28.00;24.00;;;;;8.89;62.32;103138.78;5030006;28;45215;-66
2021/12/18 09:02:46;;;;;;;;;26.00;21.25;;;;;8.85;63.21;103132.31;5024193;28;47209;-66
2021/12/18 09:05:12;;;;;;;;;31.75;24.75;;;;;8.84;62.00;103126.88;5030612;28;45176;-67
2021/12/18 09:07:37;;;;;;;;;38.50;32.00;;;;;8.87;62.97;103131.53;5027009;28;45303;-66
2021/12/18 09:10:05;;;;;;;;;48.75;38.50;;;;;8.88;63.33;103134.28;5030428;28;45269;-64
2021/12/18 09:12:30;;;;;;;;;30.25;24.25;;;;;8.91;62.27;103125.56;5029771;28;45278;-68
2021/12/18 09:14:55;;;;;;;;;10.75;10.75;;;;;8.78;62.10;103113.13;5030301;28;45193;-66
2021/12/18 09:17:21;;;;;;;;;26.75;21.25;;;;;8.94;62.54;103133.78;5046711;28;45283;-66
2021/12/18 09:19:46;;;;;;;;;31.50;27.25;;;;;8.47;62.34;103049.63;5031741;28;45260;-66
2021/12/18 09:22:12;;;;;;;;;39.25;33.25;;;;;8.90;61.89;103123.75;5030855;28;46016;-67
2021/12/18 09:24:38;;;;;;;;;26.25;25.00;;;;;8.85;62.59;103128.75;5030538;28;45124;-66
2021/12/18 09:27:05;;;;;;;;;27.00;20.75;;;;;8.86;61.75;103119.94;5031092;28;45271;-66
2021/12/18 09:29:30;;;;;;;;;29.50;21.50;;;;;8.83;61.73;103117.06;5032303;28;45194;-65
2021/12/18 09:31:56;;;;;;;;;23.00;17.75;;;;;8.63;62.62;103088.97;5031466;28;45110;-66
2021/12/18 09:34:21;;;;;;;;;44.75;37.50;;;;;8.78;62.03;103111.38;5030486;28;45266;-66
2021/12/18 09:36:46;;;;;;;;;44.75;31.75;;;;;8.75;62.27;103097.84;5030959;28;45248;-66
2021/12/18 09:39:14;;;;;;;;;49.25;37.25;;;;;8.57;61.79;103054.81;5032116;28;44866;-67
2021/12/18 09:41:39;;;;;;;;;26.75;21.25;;;;;8.83;61.57;103103.72;5023830;28;45775;-65
2021/12/18 09:44:05;;;;;;;;;24.00;20.75;;;;;8.86;62.44;103109.28;5028435;28;45100;-64
2021/12/18 09:46:31;;;;;;;;;21.25;19.75;;;;;8.60;62.10;103057.69;5031184;28;45141;-66
2021/12/18 09:48:57;;;;;;;;;22.25;20.00;;;;;8.46;61.30;103032.72;5029366;28;44936;-67
2021/12/18 09:51:27;;;;;;;;;25.75;20.50;;;;;8.90;61.71;103115.75;5029832;28;47141;-67
2021/12/18 09:53:54;;;;;;;;;28.75;21.00;;;;;8.95;61.48;103112.56;5029390;28;45064;-64
2021/12/18 09:56:21;;;;;;;;;23.75;17.75;;;;;9.00;61.51;103107.56;5030037;28;45444;-69
2021/12/18 09:58:47;;;;;;;;;27.75;23.00;;;;;9.05;62.00;103106.16;5021172;28;45597;-66
2021/12/18 10:01:12;;;;;;;;;26.50;21.00;;;;;9.09;61.35;103115.28;5027609;28;45609;-66
2021/12/18 10:03:50;;;;;;;;;21.75;18.50;;;;;9.12;61.70;103108.44;5028645;28;44943;-65
2021/12/18 10:06:38;;;;;;;;;33.00;25.50;;;;;9.13;61.46;103109.38;5016319;28;45203;-66
2021/12/18 10:09:07;;;;;;;;;27.50;24.50;;;;;8.88;61.59;103049.00;5023673;28;45025;-68
2021/12/18 10:11:34;;;;;;;;;30.00;20.75;;;;;9.21;61.62;103101.09;5028822;28;45923;-65
2021/12/18 10:14:02;;;;;;;;;20.50;17.50;;;;;9.23;60.85;103098.53;5029563;28;45229;-67
2021/12/18 10:16:29;;;;;;;;;39.50;33.00;;;;;9.27;61.07;103091.66;5042885;28;45350;-64
2021/12/18 10:18:56;;;;;;;;;30.50;23.75;;;;;9.30;61.64;103091.88;5019971;28;45589;-64
2021/12/18 10:21:25;;;;;;;;;29.75;27.00;;;;;9.33;60.99;103093.00;5015609;28;45798;-66
2021/12/18 10:23:51;;;;;;;;;25.25;22.25;;;;;9.40;60.33;103102.34;5030325;28;44930;-65
2021/12/18 10:26:31;;;;;;;;;26.50;23.00;;;;;9.07;60.72;103026.28;5017531;28;45194;-67
2021/12/18 10:28:56;;;;;;;;;25.75;24.25;;;;;9.44;60.49;103079.47;5029365;28;44892;-64
2021/12/18 10:31:45;;;;;;;;;34.50;27.25;;;;;9.53;60.09;103093.44;5027841;28;45061;-67
2021/12/18 10:34:22;;;;;;;;;27.00;23.00;;;;;9.48;60.26;103065.53;5028068;28;44956;-66
2021/12/18 10:37:11;;;;;;;;;39.50;30.50;;;;;9.68;60.38;103080.22;5027173;28;45129;-65
2021/12/18 10:39:44;;;;;;;;;35.75;24.75;;;;;9.73;60.01;103070.78;5028824;28;44992;-64
2021/12/18 10:42:15;;;;;;;;;33.25;26.00;;;;;9.81;59.85;103080.22;5028084;28;46076;-67
2021/12/18 10:45:05;;;;;;;;;29.00;25.50;;;;;9.86;59.43;103073.44;5029204;28;45317;-66
2021/12/18 10:47:55;;;;;;;;;26.00;21.25;;;;;9.85;58.93;103070.66;5028409;28;45247;-67
2021/12/18 10:50:43;;;;;;;;;32.50;23.75;;;;;9.89;59.70;103062.97;5025169;28;45378;-67
2021/12/18 10:53:13;;;;;;;;;27.75;21.00;;;;;9.94;59.40;103066.88;5028188;28;46300;-68
2021/12/18 10:55:59;;;;;;;;;33.00;24.75;;;;;9.96;59.07;103067.91;5030243;28;45150;-65
2021/12/18 10:58:30;;;;;;;;;26.50;23.50;;;;;9.59;58.92;102977.38;5029096;28;45040;-65
2021/12/18 11:01:00;;;;;;;;;26.25;22.50;;;;;10.08;58.98;103059.78;5029181;28;45358;-65
2021/12/18 11:03:27;;;;;;;;;32.75;29.25;;;;;10.14;59.13;103053.91;5029784;28;45775;-66
2021/12/18 11:06:11;;;;;;;;;29.00;25.50;;;;;10.18;57.93;103053.28;5030755;28;44946;-68
2021/12/18 11:08:51;;;;;;;;;30.75;26.75;;;;;10.22;58.65;103049.97;5030279;28;45003;-68
2021/12/18 11:14:21;;;;;;;;;32.00;26.50;;;;;10.37;58.53;103044.75;5018209;28;46094;-65
2021/12/18 11:16:52;;;;;;;;;35.00;29.75;;;;;10.46;58.20;103041.72;5032185;28;45039;-65
2021/12/18 11:19:21;;;;;;;;;50.25;38.75;;;;;10.57;58.31;103045.09;5028281;28;45087;-66
2021/12/18 11:21:52;;;;;;;;;37.25;31.75;;;;;10.49;57.21;103033.91;5031970;28;45040;-65
2021/12/18 11:24:20;;;;;;;;;32.75;29.00;;;;;10.67;57.67;103047.50;5038653;28;45903;-65
2021/12/18 11:26:58;;;;;;;;;47.25;39.25;;;;;10.40;57.19;102998.59;5030262;28;45455;-66
2021/12/18 11:29:50;;;;;;;;;42.75;34.50;;;;;10.80;57.73;103046.53;5029506;28;45123;-66
2021/12/18 11:32:39;;;;;;;;;37.50;31.25;;;;;10.91;57.22;103041.88;5031150;28;45059;-67
2021/12/18 11:35:08;;;;;;;;;24.25;20.50;;;;;10.45;56.53;102959.72;5029266;28;45709;-66
2021/12/18 11:37:40;;;;;;;;;29.50;24.75;;;;;10.95;56.95;103039.44;5023763;28;44942;-65
2021/12/18 11:40:07;;;;;;;;;25.25;23.00;;;;;10.97;57.05;103024.44;5031581;28;45512;-65
2021/12/18 11:42:34;;;;;;;;;34.50;31.50;;;;;11.11;56.84;103025.28;5031232;28;45532;-67
2021/12/18 11:45:04;;;;;;;;;31.50;25.00;;;;;11.13;56.79;103028.97;5031244;28;45216;-67
2021/12/18 11:47:32;;;;;;;;;31.75;27.00;;;;;11.15;56.68;103021.03;5019102;28;45276;-64
2021/12/18 11:50:20;;;;;;;;;33.75;27.25;;;;;11.17;56.11;103022.97;5031449;28;45181;-66
2021/12/18 11:53:19;;;;;;;;;35.00;28.50;;;;;11.21;56.77;103019.63;5018803;28;45133;-65
2021/12/18 11:55:50;;;;;;;;;40.00;32.25;;;;;11.28;56.05;103028.03;5021888;28;45308;-67
2021/12/18 11:58:22;;;;;;;;;39.00;34.00;;;;;11.33;56.01;103019.44;5032670;28;45215;-67